sensor_id;sensor_type;location;lat;lon;timestamp;pressure;altitude;pressure_sealevel;temperature;humidity
44309;BME280;30022;55.846;37.340;2023-03-12T00:02:19;50467.06;;;-143.51;100.00
44309;BME280;30022;55.846;37.340;2023-03-12T00:04:45;50482.88;;;-143.51;100.00
44309;BME280;30022;55.846;37.340;2023-03-12T00:07:11;50573.81;;;-143.51;100.00
44309;BME280;30022;55.846;37.340;2023-03-12T00:09:37;50639.03;;;-143.51;100.00
44309;BME280;30022;55.846;37.340;2023-03-12T00:12:03;50909.88;;;-143.51;100.00
44309;BME280;30022;55.846;37.340;2023-03-12T00:14:29;50860.44;;;-143.51;100.00
44309;BME280;30022;55.846;37.340;2023-03-12T00:16:55;50896.03;;;-143.51;100.00
44309;BME280;30022;55.846;37.340;2023-03-12T00:19:20;51155.03;;;-143.51;100.00
44309;BME280;30022;55.846;37.340;2023-03-12T00:21:46;51062.09;;;-143.51;100.00
44309;BME280;30022;55.846;37.340;2023-03-12T00:24:12;51242.03;;;-143.51;100.00
44309;BME280;30022;55.846;37.340;2023-03-12T00:26:38;51329.00;;;-143.51;100.00
44309;BME280;30022;55.846;37.340;2023-03-12T00:29:03;51439.75;;;-143.51;100.00
44309;BME280;30022;55.846;37.340;2023-03-12T00:31:30;51291.44;;;-143.51;100.00
44309;BME280;30022;55.846;37.340;2023-03-12T00:33:57;51133.28;;;-143.51;100.00
44309;BME280;30022;55.846;37.340;2023-03-12T00:36:24;51295.41;;;-143.51;100.00
44309;BME280;30022;55.846;37.340;2023-03-12T00:38:53;51301.34;;;-143.51;100.00
44309;BME280;30022;55.846;37.340;2023-03-12T00:41:19;51277.59;;;-143.51;100.00
44309;BME280;30022;55.846;37.340;2023-03-12T00:43:46;51435.78;;;-143.51;100.00
44309;BME280;30022;55.846;37.340;2023-03-12T00:46:11;51135.25;;;-143.51;100.00
44309;BME280;30022;55.846;37.340;2023-03-12T00:48:37;51297.38;;;-143.51;100.00
44309;BME280;30022;55.846;37.340;2023-03-12T00:51:02;51259.81;;;-143.51;100.00
44309;BME280;30022;55.846;37.340;2023-03-12T00:53:28;51512.91;;;-143.51;100.00
44309;BME280;30022;55.846;37.340;2023-03-12T00:55:54;51455.56;;;-143.51;100.00
44309;BME280;30022;55.846;37.340;2023-03-12T00:58:19;51736.34;;;-143.51;100.00
44309;BME280;30022;55.846;37.340;2023-03-12T01:00:45;51558.38;;;-143.51;100.00
44309;BME280;30022;55.846;37.340;2023-03-12T01:03:11;51542.56;;;-143.51;100.00
44309;BME280;30022;55.846;37.340;2023-03-12T01:05:37;51463.47;;;-143.51;100.00
44309;BME280;30022;55.846;37.340;2023-03-12T01:08:05;51526.75;;;-143.51;100.00
44309;BME280;30022;55.846;37.340;2023-03-12T01:10:31;51684.94;;;-143.51;100.00
44309;BME280;30022;55.846;37.340;2023-03-12T01:12:57;51613.75;;;-143.51;100.00
44309;BME280;30022;55.846;37.340;2023-03-12T01:15:23;51839.16;;;-143.51;100.00
44309;BME280;30022;55.846;37.340;2023-03-12T01:17:49;51775.88;;;-143.51;100.00
44309;BME280;30022;55.846;37.340;2023-03-12T01:20:15;52116.00;;;-143.51;100.00
44309;BME280;30022;55.846;37.340;2023-03-12T01:22:41;52278.19;;;-143.51;100.00
44309;BME280;30022;55.846;37.340;2023-03-12T01:25:08;52096.25;;;-143.51;100.00
44309;BME280;30022;55.846;37.340;2023-03-12T01:27:34;52048.78;;;-143.51;100.00
44309;BME280;30022;55.846;37.340;2023-03-12T01:30:00;52060.66;;;-143.51;100.00
44309;BME280;30022;55.846;37.340;2023-03-12T01:32:26;52112.06;;;-143.51;100.00
44309;BME280;30022;55.846;37.340;2023-03-12T01:34:51;52282.13;;;-143.51;100.00
44309;BME280;30022;55.846;37.340;2023-03-12T01:37:17;52159.53;;;-143.51;100.00
44309;BME280;30022;55.846;37.340;2023-03-12T01:39:43;52212.91;;;-143.51;100.00
44309;BME280;30022;55.846;37.340;2023-03-12T01:42:08;52416.63;;;-143.51;100.00
44309;BME280;30022;55.846;37.340;2023-03-12T01:47:18;52284.13;;;-143.51;100.00
44309;BME280;30022;55.846;37.340;2023-03-12T01:49:44;52578.81;;;-143.51;100.00
44309;BME280;30022;55.846;37.340;2023-03-12T01:52:15;52479.91;;;-143.51;100.00
44309;BME280;30022;55.846;37.340;2023-03-12T01:55:08;52456.19;;;-143.51;100.00
44309;BME280;30022;55.846;37.340;2023-03-12T01:57:51;52485.84;;;-143.51;100.00
44309;BME280;30022;55.846;37.340;2023-03-12T02:00:22;52624.28;;;-143.51;100.00
44309;BME280;30022;55.846;37.340;2023-03-12T02:02:49;52764.72;;;-143.51;100.00
44309;BME280;30022;55.846;37.340;2023-03-12T02:07:45;53225.59;;;-143.51;100.00
44309;BME280;30022;55.846;37.340;2023-03-12T02:10:11;53191.97;;;-143.51;100.00
44309;BME280;30022;55.846;37.340;2023-03-12T02:12:37;53433.31;;;-143.51;100.00
44309;BME280;30022;55.846;37.340;2023-03-12T02:15:03;53524.31;;;-143.51;100.00
44309;BME280;30022;55.846;37.340;2023-03-12T02:17:30;53518.38;;;-143.51;100.00
44309;BME280;30022;55.846;37.340;2023-03-12T02:20:03;53407.59;;;-143.51;100.00
44309;BME280;30022;55.846;37.340;2023-03-12T02:22:35;53314.63;;;-143.51;100.00
44309;BME280;30022;55.846;37.340;2023-03-12T02:25:20;53506.50;;;-143.51;100.00
44309;BME280;30022;55.846;37.340;2023-03-12T02:27:48;53567.84;;;-143.51;100.00
44309;BME280;30022;55.846;37.340;2023-03-12T02:30:13;53708.28;;;-143.51;100.00
44309;BME280;30022;55.846;37.340;2023-03-12T02:32:41;53615.31;;;-143.51;100.00
44309;BME280;30022;55.846;37.340;2023-03-12T02:35:08;53587.63;;;-143.51;100.00
44309;BME280;30022;55.846;37.340;2023-03-12T02:37:33;53670.72;;;-143.51;100.00
44309;BME280;30022;55.846;37.340;2023-03-12T02:42:32;54111.91;;;-143.51;100.00
44309;BME280;30022;55.846;37.340;2023-03-12T02:44:57;54032.75;;;-143.51;100.00
44309;BME280;30022;55.846;37.340;2023-03-12T02:47:23;54068.38;;;-143.51;100.00
44309;BME280;30022;55.846;37.340;2023-03-12T02:49:49;53876.47;;;-143.51;100.00
44309;BME280;30022;55.846;37.340;2023-03-12T02:52:14;54278.09;;;-143.51;100.00
44309;BME280;30022;55.846;37.340;2023-03-12T02:54:41;54161.38;;;-143.51;100.00
44309;BME280;30022;55.846;37.340;2023-03-12T02:57:07;54313.72;;;-143.51;100.00
44309;BME280;30022;55.846;37.340;2023-03-12T02:59:33;54681.78;;;-143.51;100.00
44309;BME280;30022;55.846;37.340;2023-03-12T03:01:59;54970.69;;;-143.51;100.00
44309;BME280;30022;55.846;37.340;2023-03-12T03:04:25;55067.69;;;-143.51;100.00
44309;BME280;30022;55.846;37.340;2023-03-12T03:06:52;54788.63;;;-143.51;100.00
44309;BME280;30022;55.846;37.340;2023-03-12T03:09:18;54881.66;;;-143.51;100.00
44309;BME280;30022;55.846;37.340;2023-03-12T03:11:46;54895.50;;;-143.51;100.00
44309;BME280;30022;55.846;37.340;2023-03-12T03:14:12;54654.06;;;-143.51;100.00
44309;BME280;30022;55.846;37.340;2023-03-12T03:16:38;55158.72;;;-143.51;100.00
44309;BME280;30022;55.846;37.340;2023-03-12T03:19:04;55065.69;;;-143.51;100.00
44309;BME280;30022;55.846;37.340;2023-03-12T03:21:30;55083.50;;;-143.51;100.00
44309;BME280;30022;55.846;37.340;2023-03-12T03:23:55;54913.31;;;-143.51;100.00
44309;BME280;30022;55.846;37.340;2023-03-12T03:26:21;55429.84;;;-143.51;100.00
44309;BME280;30022;55.846;37.340;2023-03-12T03:28:48;55313.09;;;-143.51;100.00
44309;BME280;30022;55.846;37.340;2023-03-12T03:31:13;55574.34;;;-143.51;100.00
44309;BME280;30022;55.846;37.340;2023-03-12T03:33:40;55121.13;;;-143.51;100.00
44309;BME280;30022;55.846;37.340;2023-03-12T03:36:07;55443.72;;;-143.51;100.00
44309;BME280;30022;55.846;37.340;2023-03-12T03:38:38;55823.75;;;-143.51;100.00
44309;BME280;30022;55.846;37.340;2023-03-12T03:41:04;55475.38;;;-143.51;100.00
44309;BME280;30022;55.846;37.340;2023-03-12T03:43:33;55441.75;;;-143.51;100.00
44309;BME280;30022;55.846;37.340;2023-03-12T03:46:00;55352.66;;;-143.51;100.00
44309;BME280;30022;55.846;37.340;2023-03-12T03:48:26;55279.44;;;-143.51;100.00
44309;BME280;30022;55.846;37.340;2023-03-12T03:50:52;55226.00;;;-143.51;100.00
44309;BME280;30022;55.846;37.340;2023-03-12T03:53:18;55077.56;;;-143.51;100.00
44309;BME280;30022;55.846;37.340;2023-03-12T03:55:44;55162.66;;;-143.51;100.00
44309;BME280;30022;55.846;37.340;2023-03-12T03:58:11;56073.16;;;-143.51;100.00
44309;BME280;30022;55.846;37.340;2023-03-12T04:00:37;55997.94;;;-143.51;100.00
44309;BME280;30022;55.846;37.340;2023-03-12T04:03:03;55782.19;;;-143.51;100.00
44309;BME280;30022;55.846;37.340;2023-03-12T04:05:28;55524.88;;;-143.51;100.00
44309;BME280;30022;55.846;37.340;2023-03-12T04:07:54;55198.28;;;-143.51;100.00
44309;BME280;30022;55.846;37.340;2023-03-12T04:10:23;55718.84;;;-143.51;100.00
44309;BME280;30022;55.846;37.340;2023-03-12T04:12:49;55839.59;;;-143.51;100.00
44309;BME280;30022;55.846;37.340;2023-03-12T04:15:16;55845.53;;;-143.51;100.00
44309;BME280;30022;55.846;37.340;2023-03-12T04:17:41;55352.66;;;-143.51;100.00
44309;BME280;30022;55.846;37.340;2023-03-12T04:20:07;56132.56;;;-143.51;100.00
44309;BME280;30022;55.846;37.340;2023-03-12T04:22:35;56035.56;;;-143.51;100.00
44309;BME280;30022;55.846;37.340;2023-03-12T04:25:01;56100.88;;;-143.51;100.00
44309;BME280;30022;55.846;37.340;2023-03-12T04:27:28;55736.66;;;-143.51;100.00
44309;BME280;30022;55.846;37.340;2023-03-12T04:29:53;55897.00;;;-143.51;100.00
44309;BME280;30022;55.846;37.340;2023-03-12T04:32:20;56528.50;;;-143.51;100.00
44309;BME280;30022;55.846;37.340;2023-03-12T04:34:46;56435.44;;;-143.51;100.00
44309;BME280;30022;55.846;37.340;2023-03-12T04:37:14;56001.91;;;-143.51;100.00
44309;BME280;30022;55.846;37.340;2023-03-12T04:39:41;56182.03;;;-143.51;100.00
44309;BME280;30022;55.846;37.340;2023-03-12T04:42:07;56277.06;;;-143.51;100.00
44309;BME280;30022;55.846;37.340;2023-03-12T04:44:33;56324.56;;;-143.51;100.00
44309;BME280;30022;55.846;37.340;2023-03-12T04:46:59;56514.63;;;-143.51;100.00
44309;BME280;30022;55.846;37.340;2023-03-12T04:49:25;56500.78;;;-143.51;100.00
44309;BME280;30022;55.846;37.340;2023-03-12T04:51:53;56641.34;;;-143.51;100.00
44309;BME280;30022;55.846;37.340;2023-03-12T04:54:19;56878.94;;;-143.51;100.00
44309;BME280;30022;55.846;37.340;2023-03-12T04:56:48;57003.66;;;-143.51;100.00
44309;BME280;30022;55.846;37.340;2023-03-12T04:59:14;56896.75;;;-143.51;100.00
44309;BME280;30022;55.846;37.340;2023-03-12T05:01:41;57076.94;;;-143.51;100.00
44309;BME280;30022;55.846;37.340;2023-03-12T05:04:14;57510.59;;;-143.51;100.00
44309;BME280;30022;55.846;37.340;2023-03-12T05:06:39;57409.59;;;-143.51;100.00
44309;BME280;30022;55.846;37.340;2023-03-12T05:09:05;57787.84;;;-143.51;100.00
44309;BME280;30022;55.846;37.340;2023-03-12T05:11:31;57595.75;;;-143.51;100.00
44309;BME280;30022;55.846;37.340;2023-03-12T05:13:57;57954.19;;;-143.51;100.00
44309;BME280;30022;55.846;37.340;2023-03-12T05:16:22;58362.19;;;-143.51;100.00
44309;BME280;30022;55.846;37.340;2023-03-12T05:18:48;58306.75;;;-143.51;100.00
44309;BME280;30022;55.846;37.340;2023-03-12T05:21:16;58758.38;;;-143.51;100.00
44309;BME280;30022;55.846;37.340;2023-03-12T05:23:42;58607.81;;;-143.51;100.00
44309;BME280;30022;55.846;37.340;2023-03-12T05:26:16;58879.19;;;-143.51;100.00
44309;BME280;30022;55.846;37.340;2023-03-12T05:28:42;58235.44;;;-143.51;100.00
44309;BME280;30022;55.846;37.340;2023-03-12T05:31:08;58197.81;;;-143.51;100.00
44309;BME280;30022;55.846;37.340;2023-03-12T05:33:34;58665.25;;;-143.51;100.00
44309;BME280;30022;55.846;37.340;2023-03-12T05:36:00;58865.34;;;-143.51;100.00
44309;BME280;30022;55.846;37.340;2023-03-12T05:38:26;58792.03;;;-143.51;100.00
44309;BME280;30022;55.846;37.340;2023-03-12T05:40:53;59043.63;;;-143.51;100.00
44309;BME280;30022;55.846;37.340;2023-03-12T05:43:19;58481.03;;;-143.51;100.00
44309;BME280;30022;55.846;37.340;2023-03-12T05:45:45;58744.50;;;-143.51;100.00
44309;BME280;30022;55.846;37.340;2023-03-12T05:48:11;58207.72;;;-143.51;100.00
44309;BME280;30022;55.846;37.340;2023-03-12T05:50:36;58247.31;;;-143.51;100.00
44309;BME280;30022;55.846;37.340;2023-03-12T05:53:02;59043.63;;;-143.51;100.00
44309;BME280;30022;55.846;37.340;2023-03-12T05:55:27;59148.63;;;-143.51;100.00
44309;BME280;30022;55.846;37.340;2023-03-12T05:57:53;58885.16;;;-143.51;100.00
44309;BME280;30022;55.846;37.340;2023-03-12T06:00:19;59297.22;;;-143.51;100.00
44309;BME280;30022;55.846;37.340;2023-03-12T06:02:53;59297.22;;;-143.51;100.00
44309;BME280;30022;55.846;37.340;2023-03-12T06:05:18;59685.53;;;-143.51;100.00
44309;BME280;30022;55.846;37.340;2023-03-12T06:07:44;59160.50;;;-143.51;100.00
44309;BME280;30022;55.846;37.340;2023-03-12T06:10:10;59439.84;;;-143.51;100.00
44309;BME280;30022;55.846;37.340;2023-03-12T06:12:35;60757.59;;;-143.51;100.00
44309;BME280;30022;55.846;37.340;2023-03-12T06:15:01;61415.66;;;-143.51;100.00
44309;BME280;30022;55.846;37.340;2023-03-12T06:17:28;61457.28;;;-143.51;100.00
44309;BME280;30022;55.846;37.340;2023-03-12T06:19:54;61469.16;;;-143.51;100.00
44309;BME280;30022;55.846;37.340;2023-03-12T06:22:20;61302.66;;;-143.51;100.00
44309;BME280;30022;55.846;37.340;2023-03-12T06:24:47;62325.59;;;-143.51;100.00
44309;BME280;30022;55.846;37.340;2023-03-12T06:27:15;63255.56;;;-143.51;100.00
44309;BME280;30022;55.846;37.340;2023-03-12T06:29:41;63307.13;;;-143.51;100.00
44309;BME280;30022;55.846;37.340;2023-03-12T06:32:07;61919.16;;;-143.51;100.00
44309;BME280;30022;55.846;37.340;2023-03-12T06:34:32;62383.09;;;-143.51;100.00
44309;BME280;30022;55.846;37.340;2023-03-12T06:37:01;62075.78;;;-143.51;100.00
44309;BME280;30022;55.846;37.340;2023-03-12T06:39:27;62125.34;;;-143.51;100.00
44309;BME280;30022;55.846;37.340;2023-03-12T06:41:54;62063.88;;;-143.51;100.00
44309;BME280;30022;55.846;37.340;2023-03-12T06:44:20;62317.66;;;-143.51;100.00
44309;BME280;30022;55.846;37.340;2023-03-12T06:46:45;62289.91;;;-143.51;100.00
44309;BME280;30022;55.846;37.340;2023-03-12T06:49:11;63075.13;;;-143.51;100.00
44309;BME280;30022;55.846;37.340;2023-03-12T06:51:37;62527.84;;;-143.51;100.00
44309;BME280;30022;55.846;37.340;2023-03-12T06:54:03;63763.28;;;-143.51;100.00
44309;BME280;30022;55.846;37.340;2023-03-12T06:56:28;63503.47;;;-143.51;100.00
44309;BME280;30022;55.846;37.340;2023-03-12T06:58:54;63816.84;;;-143.51;100.00
44309;BME280;30022;55.846;37.340;2023-03-12T07:01:20;64011.22;;;-143.51;100.00
44309;BME280;30022;55.846;37.340;2023-03-12T07:03:46;63455.88;;;-143.51;100.00
44309;BME280;30022;55.846;37.340;2023-03-12T07:06:15;64132.22;;;-143.51;100.00
44309;BME280;30022;55.846;37.340;2023-03-12T07:08:41;63680.00;;;-143.51;100.00
44309;BME280;30022;55.846;37.340;2023-03-12T07:11:07;64475.41;;;-143.51;100.00
44309;BME280;30022;55.846;37.340;2023-03-12T07:13:33;64739.25;;;-143.51;100.00
44309;BME280;30022;55.846;37.340;2023-03-12T07:15:59;65802.75;;;-143.51;100.00
44309;BME280;30022;55.846;37.340;2023-03-12T07:18:24;67468.03;;;-143.51;100.00
44309;BME280;30022;55.846;37.340;2023-03-12T07:20:50;67420.38;;;-143.51;100.00
44309;BME280;30022;55.846;37.340;2023-03-12T07:23:16;68307.88;;;-143.51;100.00
44309;BME280;30022;55.846;37.340;2023-03-12T07:25:42;67082.91;;;-143.51;100.00
44309;BME280;30022;55.846;37.340;2023-03-12T07:28:08;66789.13;;;-143.51;100.00
44309;BME280;30022;55.846;37.340;2023-03-12T07:30:34;66997.56;;;-143.51;100.00
44309;BME280;30022;55.846;37.340;2023-03-12T07:33:03;67134.53;;;-143.51;100.00
44309;BME280;30022;55.846;37.340;2023-03-12T07:35:29;67168.25;;;-143.51;100.00
44309;BME280;30022;55.846;37.340;2023-03-12T07:37:55;67317.16;;;-143.51;100.00
44309;BME280;30022;55.846;37.340;2023-03-12T07:40:21;66676.00;;;-143.51;100.00
44309;BME280;30022;55.846;37.340;2023-03-12T07:42:48;82508.69;;;-143.51;100.00
44309;BME280;30022;55.846;37.340;2023-03-12T07:45:14;92724.34;;;-143.51;100.00
44309;BME280;30022;55.846;37.340;2023-03-12T07:47:40;96561.91;;;-143.51;100.00
44309;BME280;30022;55.846;37.340;2023-03-12T07:50:05;99122.31;;;-143.51;100.00
44309;BME280;30022;55.846;37.340;2023-03-12T07:52:31;103735.09;;;-143.51;100.00
44309;BME280;30022;55.846;37.340;2023-03-12T07:54:56;106556.59;;;-143.51;100.00
44309;BME280;30022;55.846;37.340;2023-03-12T07:57:22;109380.06;;;-143.51;100.00
44309;BME280;30022;55.846;37.340;2023-03-12T07:59:48;110920.97;;;-143.51;100.00
44309;BME280;30022;55.846;37.340;2023-03-12T08:02:14;111179.84;;;-143.51;100.00
44309;BME280;30022;55.846;37.340;2023-03-12T08:04:39;111179.84;;;-143.51;100.00
44309;BME280;30022;55.846;37.340;2023-03-12T08:07:05;111179.84;;;-143.51;100.00
44309;BME280;30022;55.846;37.340;2023-03-12T08:09:31;111179.84;;;-143.51;100.00
44309;BME280;30022;55.846;37.340;2023-03-12T08:11:57;111179.84;;;-143.51;100.00
44309;BME280;30022;55.846;37.340;2023-03-12T08:14:23;111179.84;;;-143.51;100.00
44309;BME280;30022;55.846;37.340;2023-03-12T08:16:48;111179.84;;;-143.51;100.00
44309;BME280;30022;55.846;37.340;2023-03-12T08:19:14;111179.84;;;-143.51;100.00
44309;BME280;30022;55.846;37.340;2023-03-12T08:21:40;111179.84;;;-143.51;100.00
44309;BME280;30022;55.846;37.340;2023-03-12T08:24:05;111179.84;;;-143.51;100.00
44309;BME280;30022;55.846;37.340;2023-03-12T08:26:31;111179.84;;;-143.51;100.00
44309;BME280;30022;55.846;37.340;2023-03-12T08:28:56;111179.84;;;-143.51;100.00
44309;BME280;30022;55.846;37.340;2023-03-12T08:31:25;111179.84;;;-143.51;100.00
44309;BME280;30022;55.846;37.340;2023-03-12T08:33:50;111179.84;;;-143.51;100.00
44309;BME280;30022;55.846;37.340;2023-03-12T08:36:16;111179.84;;;-143.51;100.00
44309;BME280;30022;55.846;37.340;2023-03-12T08:38:41;111179.84;;;-143.51;100.00
44309;BME280;30022;55.846;37.340;2023-03-12T08:41:08;111179.84;;;-143.51;100.00
44309;BME280;30022;55.846;37.340;2023-03-12T08:43:34;111179.84;;;-143.51;100.00
44309;BME280;30022;55.846;37.340;2023-03-12T08:46:00;111179.84;;;-143.51;100.00
44309;BME280;30022;55.846;37.340;2023-03-12T08:48:27;111179.84;;;-143.51;100.00
44309;BME280;30022;55.846;37.340;2023-03-12T08:50:54;111179.84;;;-143.51;100.00
44309;BME280;30022;55.846;37.340;2023-03-12T08:53:19;111179.84;;;-143.51;100.00
44309;BME280;30022;55.846;37.340;2023-03-12T08:55:45;111179.84;;;-143.51;100.00
44309;BME280;30022;55.846;37.340;2023-03-12T08:58:10;111179.84;;;-143.51;100.00
44309;BME280;30022;55.846;37.340;2023-03-12T09:00:36;111179.84;;;-143.51;100.00
44309;BME280;30022;55.846;37.340;2023-03-12T09:03:02;111179.84;;;-143.51;100.00
44309;BME280;30022;55.846;37.340;2023-03-12T09:05:27;111179.84;;;-143.51;100.00
44309;BME280;30022;55.846;37.340;2023-03-12T09:07:54;111179.84;;;-143.51;100.00
44309;BME280;30022;55.846;37.340;2023-03-12T09:10:20;111179.84;;;-143.51;100.00
44309;BME280;30022;55.846;37.340;2023-03-12T09:12:46;111179.84;;;-143.51;100.00
44309;BME280;30022;55.846;37.340;2023-03-12T09:15:11;111179.84;;;-143.51;100.00
44309;BME280;30022;55.846;37.340;2023-03-12T09:17:37;111179.84;;;-143.51;100.00
44309;BME280;30022;55.846;37.340;2023-03-12T09:20:03;111179.84;;;-143.51;100.00
44309;BME280;30022;55.846;37.340;2023-03-12T09:22:32;111179.84;;;-143.51;100.00
44309;BME280;30022;55.846;37.340;2023-03-12T09:25:04;111179.84;;;-143.51;100.00
44309;BME280;30022;55.846;37.340;2023-03-12T09:27:34;111179.84;;;-143.51;100.00
44309;BME280;30022;55.846;37.340;2023-03-12T09:30:00;111179.84;;;-143.51;100.00
44309;BME280;30022;55.846;37.340;2023-03-12T09:32:25;111179.84;;;-143.51;100.00
44309;BME280;30022;55.846;37.340;2023-03-12T09:34:51;111179.84;;;-143.51;100.00
44309;BME280;30022;55.846;37.340;2023-03-12T09:37:17;111179.84;;;-143.51;100.00
44309;BME280;30022;55.846;37.340;2023-03-12T09:39:43;111179.84;;;-143.51;100.00
44309;BME280;30022;55.846;37.340;2023-03-12T09:42:11;111179.84;;;-143.51;100.00
44309;BME280;30022;55.846;37.340;2023-03-12T09:44:41;111179.84;;;-143.51;100.00
44309;BME280;30022;55.846;37.340;2023-03-12T09:47:26;111179.84;;;-143.51;100.00
44309;BME280;30022;55.846;37.340;2023-03-12T09:50:28;111179.84;;;-143.51;100.00
44309;BME280;30022;55.846;37.340;2023-03-12T09:52:47;111179.84;;;-143.51;100.00
44309;BME280;30022;55.846;37.340;2023-03-12T09:55:16;111179.84;;;-143.51;100.00
44309;BME280;30022;55.846;37.340;2023-03-12T09:57:43;111179.84;;;-143.51;100.00
44309;BME280;30022;55.846;37.340;2023-03-12T10:00:11;111179.84;;;-143.51;100.00
44309;BME280;30022;55.846;37.340;2023-03-12T10:02:51;111179.84;;;-143.51;100.00
44309;BME280;30022;55.846;37.340;2023-03-12T10:10:47;111179.84;;;-143.51;100.00
44309;BME280;30022;55.846;37.340;2023-03-12T10:18:24;111179.84;;;-143.51;100.00
44309;BME280;30022;55.846;37.340;2023-03-12T10:23:51;111179.84;;;-143.51;100.00
44309;BME280;30022;55.846;37.340;2023-03-12T10:26:31;111179.84;;;-143.51;100.00
44309;BME280;30022;55.846;37.340;2023-03-12T10:28:59;111177.84;;;-143.51;100.00
44309;BME280;30022;55.846;37.340;2023-03-12T10:31:28;111179.84;;;-143.51;100.00
44309;BME280;30022;55.846;37.340;2023-03-12T10:33:57;111179.84;;;-143.51;100.00
44309;BME280;30022;55.846;37.340;2023-03-12T10:36:37;111179.84;;;-143.51;100.00
44309;BME280;30022;55.846;37.340;2023-03-12T10:39:16;111179.84;;;-143.51;100.00
44309;BME280;30022;55.846;37.340;2023-03-12T10:41:48;111179.84;;;-143.51;100.00
44309;BME280;30022;55.846;37.340;2023-03-12T10:44:22;111179.84;;;-143.51;100.00
44309;BME280;30022;55.846;37.340;2023-03-12T10:54:27;111179.84;;;-143.51;100.00
44309;BME280;30022;55.846;37.340;2023-03-12T10:56:53;111179.84;;;-143.51;100.00
44309;BME280;30022;55.846;37.340;2023-03-12T10:59:24;111179.84;;;-143.51;100.00
44309;BME280;30022;55.846;37.340;2023-03-12T11:02:45;111179.84;;;-143.51;100.00
44309;BME280;30022;55.846;37.340;2023-03-12T11:05:24;111179.84;;;-143.51;100.00
44309;BME280;30022;55.846;37.340;2023-03-12T11:07:56;111179.84;;;-143.51;100.00
44309;BME280;30022;55.846;37.340;2023-03-12T11:10:44;111179.84;;;-143.51;100.00
44309;BME280;30022;55.846;37.340;2023-03-12T11:13:27;111179.84;;;-143.51;100.00
44309;BME280;30022;55.846;37.340;2023-03-12T11:16:24;111179.84;;;-143.51;100.00
44309;BME280;30022;55.846;37.340;2023-03-12T11:19:10;111179.84;;;-143.51;100.00
44309;BME280;30022;55.846;37.340;2023-03-12T11:21:39;111179.84;;;-143.51;100.00
44309;BME280;30022;55.846;37.340;2023-03-12T11:24:18;111179.84;;;-143.51;100.00
44309;BME280;30022;55.846;37.340;2023-03-12T11:34:43;111179.84;;;-143.51;100.00
44309;BME280;30022;55.846;37.340;2023-03-12T11:37:38;111179.84;;;-143.51;100.00
44309;BME280;30022;55.846;37.340;2023-03-12T11:43:11;111179.84;;;-143.51;100.00
44309;BME280;30022;55.846;37.340;2023-03-12T11:51:29;111179.84;;;-143.51;100.00
44309;BME280;30022;55.846;37.340;2023-03-12T11:57:04;111179.84;;;-143.51;100.00
44309;BME280;30022;55.846;37.340;2023-03-12T11:59:38;110407.28;;;-143.51;100.00
44309;BME280;30022;55.846;37.340;2023-03-12T12:02:19;106813.19;;;-143.51;100.00
44309;BME280;30022;55.846;37.340;2023-03-12T12:22:30;94003.13;;;-143.51;100.00
44309;BME280;30022;55.846;37.340;2023-03-12T12:25:20;94003.13;;;-143.51;100.00
44309;BME280;30022;55.846;37.340;2023-03-12T12:30:41;90679.16;;;-143.51;100.00
44309;BME280;30022;55.846;37.340;2023-03-12T12:35:52;89145.94;;;-143.51;100.00
44309;BME280;30022;55.846;37.340;2023-03-12T12:38:53;88124.09;;;-143.51;100.00
44309;BME280;30022;55.846;37.340;2023-03-12T12:41:19;85315.41;;;-143.51;100.00
44309;BME280;30022;55.846;37.340;2023-03-12T12:46:21;82763.78;;;-143.51;100.00
44309;BME280;30022;55.846;37.340;2023-03-12T12:51:18;78939.34;;;-143.51;100.00
44309;BME280;30022;55.846;37.340;2023-03-12T12:59:17;76391.72;;;-143.51;100.00
44309;BME280;30022;55.846;37.340;2023-03-12T13:01:50;73770.19;;;-143.51;100.00
44309;BME280;30022;55.846;37.340;2023-03-12T13:04:23;69652.38;;;-143.51;100.00
44309;BME280;30022;55.846;37.340;2023-03-12T13:06:55;66733.56;;;-143.51;100.00
44309;BME280;30022;55.846;37.340;2023-03-12T13:09:22;67120.63;;;-143.51;100.00
44309;BME280;30022;55.846;37.340;2023-03-12T13:14:46;64546.81;;;-143.51;100.00
44309;BME280;30022;55.846;37.340;2023-03-12T13:17:26;64409.94;;;-143.51;100.00
44309;BME280;30022;55.846;37.340;2023-03-12T13:20:14;63729.56;;;-143.51;100.00
44309;BME280;30022;55.846;37.340;2023-03-12T13:27:38;62319.66;;;-143.51;100.00
44309;BME280;30022;55.846;37.340;2023-03-12T13:30:26;62329.56;;;-143.51;100.00
44309;BME280;30022;55.846;37.340;2023-03-12T13:45:54;56970.00;;;-143.51;100.00
44309;BME280;30022;55.846;37.340;2023-03-12T13:48:20;56092.97;;;-143.51;100.00
44309;BME280;30022;55.846;37.340;2023-03-12T13:50:50;54638.25;;;-143.51;100.00
44309;BME280;30022;55.846;37.340;2023-03-12T13:53:23;54204.91;;;-143.51;100.00
44309;BME280;30022;55.846;37.340;2023-03-12T13:55:58;53805.25;;;-143.51;100.00
44309;BME280;30022;55.846;37.340;2023-03-12T13:58:28;53211.75;;;-143.51;100.00
44309;BME280;30022;55.846;37.340;2023-03-12T14:01:01;52430.47;;;-143.51;100.00
44309;BME280;30022;55.846;37.340;2023-03-12T14:03:32;51793.69;;;-143.51;100.00
44309;BME280;30022;55.846;37.340;2023-03-12T14:06:09;51196.53;;;-143.51;100.00
44309;BME280;30022;55.846;37.340;2023-03-12T14:16:42;51301.34;;;-143.51;100.00